createdAt,value
2022-08-31T00:02:07.003Z,18.30
2022-08-31T00:04:33.860Z,18.40
2022-08-31T00:07:00.494Z,18.60
2022-08-31T00:09:27.081Z,18.50
2022-08-31T00:11:53.635Z,18.60
2022-08-31T00:14:20.262Z,18.70
2022-08-31T00:16:47.024Z,18.40
2022-08-31T00:19:14.008Z,18.20
2022-08-31T00:21:40.556Z,18.10
2022-08-31T00:24:07.539Z,18.20
2022-08-31T00:26:34.469Z,18.30
2022-08-31T00:29:01.200Z,18.40
2022-08-31T00:31:28.276Z,18.30
2022-08-31T00:33:56.507Z,17.90
2022-08-31T00:36:25.331Z,17.50
2022-08-31T00:38:52.660Z,17.40
2022-08-31T00:41:21.804Z,17.60
2022-08-31T00:43:55.636Z,17.30
2022-08-31T00:46:30.787Z,17.70
2022-08-31T00:48:59.956Z,17.90
2022-08-31T00:51:28.363Z,17.80
2022-08-31T00:53:55.040Z,17.80
2022-08-31T00:56:21.979Z,17.70
2022-08-31T00:58:51.363Z,17.40
2022-08-31T01:01:22.200Z,17.10
2022-08-31T01:03:49.095Z,16.80
2022-08-31T01:06:17.426Z,16.90
2022-08-31T01:08:45.338Z,17.40
2022-08-31T01:11:12.511Z,17.70
2022-08-31T01:13:39.200Z,17.50
2022-08-31T01:16:10.700Z,17.80
2022-08-31T01:18:38.118Z,17.40
2022-08-31T01:21:23.205Z,17.10
2022-08-31T01:23:50.004Z,17.30
2022-08-31T01:26:19.460Z,17.40
2022-08-31T01:28:46.733Z,16.70
2022-08-31T01:31:21.052Z,16.60
2022-08-31T01:33:48.200Z,17.00
2022-08-31T01:36:16.291Z,16.80
2022-08-31T01:38:44.349Z,17.10
2022-08-31T01:41:11.094Z,16.90
2022-08-31T01:43:44.740Z,16.80
2022-08-31T01:46:16.289Z,16.70
2022-08-31T01:48:46.546Z,16.70
2022-08-31T01:51:17.243Z,17.10
2022-08-31T01:53:48.379Z,17.20
2022-08-31T01:56:28.699Z,17.20
2022-08-31T01:59:07.659Z,17.20
2022-08-31T02:01:56.746Z,17.40
2022-08-31T02:04:26.424Z,17.30
2022-08-31T02:06:57.997Z,17.20
2022-08-31T02:09:25.437Z,17.10
2022-08-31T02:11:52.817Z,16.80
2022-08-31T02:14:20.284Z,17.30
2022-08-31T02:16:47.145Z,16.90
2022-08-31T02:19:13.681Z,17.00
2022-08-31T02:21:41.014Z,17.10
2022-08-31T02:24:08.664Z,16.90
2022-08-31T02:26:35.209Z,16.40
2022-08-31T02:29:03.919Z,16.30
2022-08-31T02:31:30.563Z,16.70
2022-08-31T02:34:00.316Z,16.90
2022-08-31T02:36:27.227Z,17.10
2022-08-31T02:38:54.832Z,17.50
2022-08-31T02:41:22.681Z,17.10
2022-08-31T02:43:49.392Z,17.00
2022-08-31T02:46:16.768Z,17.10
2022-08-31T02:48:50.926Z,17.10
2022-08-31T02:51:20.469Z,17.60
2022-08-31T02:53:47.574Z,17.60
2022-08-31T02:56:14.239Z,17.50
2022-08-31T02:58:41.233Z,17.40
2022-08-31T03:01:08.358Z,17.60
2022-08-31T03:03:35.992Z,17.60
2022-08-31T03:06:02.748Z,17.60
2022-08-31T03:08:29.650Z,17.70
2022-08-31T03:10:58.312Z,17.90
2022-08-31T03:13:24.923Z,17.80
2022-08-31T03:15:52.253Z,17.40
2022-08-31T03:18:18.864Z,16.80
2022-08-31T03:20:45.425Z,16.50
2022-08-31T03:23:12.360Z,16.80
2022-08-31T03:25:39.606Z,16.80
2022-08-31T03:28:07.212Z,16.80
2022-08-31T03:30:39.495Z,16.70
2022-08-31T03:33:08.722Z,16.50
2022-08-31T03:35:35.771Z,16.70
2022-08-31T03:38:02.720Z,16.70
2022-08-31T03:40:30.223Z,16.50
2022-08-31T03:42:58.802Z,16.50
2022-08-31T03:45:27.738Z,16.70
2022-08-31T03:47:54.783Z,16.90
2022-08-31T03:50:23.138Z,16.90
2022-08-31T03:53:06.492Z,17.00
2022-08-31T03:55:35.859Z,16.90
2022-08-31T03:58:04.231Z,16.50
2022-08-31T04:00:33.665Z,16.40
2022-08-31T04:03:04.795Z,16.80
2022-08-31T04:05:34.293Z,16.60
2022-08-31T04:08:21.070Z,16.80
2022-08-31T04:11:12.123Z,17.00
2022-08-31T04:14:17.289Z,17.30
2022-08-31T04:16:43.993Z,17.40
2022-08-31T04:19:36.429Z,17.30
2022-08-31T04:22:16.046Z,17.50
2022-08-31T04:25:00.137Z,17.70
2022-08-31T04:27:29.219Z,17.80
2022-08-31T04:29:55.868Z,17.70
2022-08-31T04:32:22.606Z,17.50
2022-08-31T04:34:56.325Z,17.30
2022-08-31T04:37:23.648Z,17.10
2022-08-31T04:39:52.226Z,17.00
2022-08-31T04:42:19.630Z,17.40
2022-08-31T04:44:46.661Z,17.40
2022-08-31T04:47:13.323Z,17.30
2022-08-31T04:49:41.026Z,17.20
2022-08-31T04:52:08.302Z,17.30
2022-08-31T04:54:37.673Z,17.30
2022-08-31T04:57:04.543Z,17.20
2022-08-31T04:59:37.801Z,17.20
2022-08-31T05:02:24.658Z,16.80
2022-08-31T05:05:00.370Z,16.50
2022-08-31T05:07:27.976Z,16.50
2022-08-31T05:09:57.406Z,16.80
2022-08-31T05:12:24.167Z,16.60
2022-08-31T05:15:01.229Z,16.40
2022-08-31T05:17:28.610Z,16.60
2022-08-31T05:19:55.432Z,16.70
2022-08-31T05:22:26.406Z,17.00
2022-08-31T05:24:55.884Z,16.80
2022-08-31T05:27:22.660Z,16.80
2022-08-31T05:29:49.230Z,16.60
2022-08-31T05:32:34.832Z,16.50
2022-08-31T05:35:05.596Z,16.70
2022-08-31T05:37:32.552Z,16.70
2022-08-31T05:39:59.214Z,16.80
2022-08-31T05:42:25.913Z,16.90
2022-08-31T05:44:52.519Z,16.90
2022-08-31T05:47:19.319Z,16.70
2022-08-31T05:49:46.492Z,16.70
2022-08-31T05:52:18.364Z,16.80
2022-08-31T05:54:45.820Z,16.90
2022-08-31T05:57:12.459Z,16.90
2022-08-31T05:59:39.800Z,16.80
2022-08-31T06:02:09.630Z,16.80
2022-08-31T06:04:36.497Z,17.00
2022-08-31T06:07:03.384Z,17.00
2022-08-31T06:09:39.010Z,17.10
2022-08-31T06:12:08.027Z,17.20
2022-08-31T06:14:34.576Z,17.20
2022-08-31T06:17:01.932Z,17.30
2022-08-31T06:19:28.775Z,17.60
2022-08-31T06:21:55.580Z,17.80
2022-08-31T06:24:24.641Z,17.90
2022-08-31T06:26:57.978Z,18.00
2022-08-31T06:29:29.364Z,18.10
2022-08-31T06:31:56.164Z,18.00
2022-08-31T06:34:23.663Z,17.90
2022-08-31T06:37:06.653Z,17.90
2022-08-31T06:39:33.328Z,18.10
2022-08-31T06:42:18.676Z,18.20
2022-08-31T06:45:07.695Z,18.20
2022-08-31T06:47:40.194Z,18.40
2022-08-31T06:50:07.187Z,18.80
2022-08-31T06:52:38.686Z,18.90
2022-08-31T06:55:25.931Z,18.90
2022-08-31T06:58:11.728Z,19.20
2022-08-31T07:01:18.346Z,19.60
2022-08-31T07:04:10.939Z,19.90
2022-08-31T07:06:42.843Z,20.20
2022-08-31T07:09:12.861Z,20.40
2022-08-31T07:11:44.781Z,20.60
2022-08-31T07:14:16.057Z,20.60
2022-08-31T07:16:44.957Z,20.70
2022-08-31T07:19:12.852Z,20.60
2022-08-31T07:21:47.671Z,20.80
2022-08-31T07:24:18.181Z,21.20
2022-08-31T07:26:47.834Z,21.00
2022-08-31T07:29:21.455Z,21.20
2022-08-31T07:31:48.985Z,21.00
2022-08-31T07:34:19.231Z,21.30
2022-08-31T07:37:24.722Z,21.40
2022-08-31T07:40:12.927Z,21.70
2022-08-31T07:42:46.917Z,21.60
2022-08-31T07:45:22.639Z,21.40
2022-08-31T07:47:55.320Z,21.70
2022-08-31T07:50:27.360Z,21.90
2022-08-31T07:53:12.701Z,22.10
2022-08-31T07:55:47.917Z,22.00
2022-08-31T07:58:30.954Z,22.30
2022-08-31T08:01:02.900Z,22.50
2022-08-31T08:03:30.329Z,22.80
2022-08-31T08:06:16.234Z,22.50
2022-08-31T08:09:24.221Z,22.50
2022-08-31T08:12:07.396Z,22.90
2022-08-31T08:14:43.328Z,23.10
2022-08-31T08:17:30.715Z,23.60
2022-08-31T08:20:06.923Z,23.60
2022-08-31T08:22:54.211Z,23.90
2022-08-31T08:25:46.370Z,23.90
2022-08-31T08:28:41.906Z,24.00
2022-08-31T08:31:14.725Z,23.90
2022-08-31T08:33:41.889Z,24.10
2022-08-31T08:36:08.896Z,24.40
2022-08-31T08:38:39.824Z,24.50
2022-08-31T08:41:12.315Z,24.80
2022-08-31T08:43:44.151Z,25.10
2022-08-31T08:46:34.959Z,24.90
2022-08-31T08:49:13.261Z,25.30
2022-08-31T08:51:40.212Z,25.70
2022-08-31T08:54:13.785Z,25.20
2022-08-31T08:56:48.850Z,24.40
2022-08-31T08:59:20.161Z,24.70
2022-08-31T09:01:50.013Z,24.70
2022-08-31T09:04:47.184Z,25.40
2022-08-31T09:07:34.030Z,25.40
2022-08-31T09:10:13.735Z,25.30
2022-08-31T09:12:49.074Z,25.10
2022-08-31T09:15:32.849Z,25.40
2022-08-31T09:18:02.716Z,25.50
2022-08-31T09:20:33.670Z,25.00
2022-08-31T09:23:00.941Z,25.00
2022-08-31T09:25:33.068Z,24.40
2022-08-31T09:28:17.013Z,24.30
2022-08-31T09:30:43.820Z,24.50
2022-08-31T09:33:17.791Z,24.20
2022-08-31T09:35:44.562Z,24.20
2022-08-31T09:38:40.253Z,24.20
2022-08-31T09:41:25.352Z,24.70
2022-08-31T09:43:52.068Z,24.80
2022-08-31T09:46:28.156Z,24.80
2022-08-31T09:48:59.774Z,25.10
2022-08-31T09:51:33.741Z,25.30
2022-08-31T09:54:37.300Z,24.70
2022-08-31T09:57:07.210Z,24.10
2022-08-31T09:59:48.349Z,24.00
2022-08-31T10:02:22.099Z,23.30
2022-08-31T10:04:55.311Z,23.90
2022-08-31T10:07:30.179Z,24.80
2022-08-31T10:10:30.296Z,25.50
2022-08-31T10:13:10.459Z,26.00
2022-08-31T10:15:59.972Z,26.70
2022-08-31T10:18:39.488Z,27.10
2022-08-31T10:21:16.236Z,27.30
2022-08-31T10:24:10.379Z,27.50
2022-08-31T10:26:42.454Z,27.80
2022-08-31T10:29:25.788Z,28.30
2022-08-31T10:31:54.990Z,28.50
2022-08-31T10:34:56.312Z,28.70
2022-08-31T10:37:43.626Z,29.50
2022-08-31T10:40:18.015Z,29.40
2022-08-31T10:42:50.514Z,29.70
2022-08-31T10:45:22.240Z,29.80
2022-08-31T10:47:50.592Z,28.70
2022-08-31T10:50:35.624Z,29.10
2022-08-31T10:53:06.625Z,29.30
2022-08-31T10:55:54.107Z,29.80
2022-08-31T10:58:53.185Z,29.60
2022-08-31T11:01:47.279Z,29.80
2022-08-31T11:04:37.232Z,30.20
2022-08-31T11:07:12.155Z,30.40
2022-08-31T11:09:42.055Z,29.80
2022-08-31T11:12:13.513Z,30.40
2022-08-31T11:14:48.371Z,30.70
2022-08-31T11:17:19.187Z,30.40
2022-08-31T11:20:24.112Z,30.70
2022-08-31T11:23:06.173Z,31.10
2022-08-31T11:26:10.254Z,31.30
2022-08-31T11:28:40.985Z,31.40
2022-08-31T11:31:23.696Z,31.50
2022-08-31T11:34:15.162Z,31.70
2022-08-31T11:36:50.154Z,32.80
2022-08-31T11:39:45.500Z,33.20
2022-08-31T11:42:37.804Z,31.40
2022-08-31T11:45:10.089Z,30.20
2022-08-31T11:47:43.101Z,28.70
2022-08-31T11:50:29.957Z,28.00
2022-08-31T11:52:58.108Z,28.00
2022-08-31T11:55:28.333Z,27.10
2022-08-31T11:58:07.171Z,27.70
2022-08-31T12:00:52.076Z,28.10
2022-08-31T12:03:39.448Z,26.90
2022-08-31T12:06:29.620Z,26.50
2022-08-31T12:09:14.962Z,25.90
2022-08-31T12:12:06.537Z,25.60
2022-08-31T12:15:06.710Z,25.50
2022-08-31T12:18:05.139Z,25.90
2022-08-31T12:21:15.323Z,27.90
2022-08-31T12:24:02.048Z,28.70
2022-08-31T12:26:53.230Z,27.90
2022-08-31T12:29:20.538Z,26.90
2022-08-31T12:32:14.347Z,26.50
2022-08-31T12:34:46.425Z,25.90
2022-08-31T12:37:22.588Z,25.50
2022-08-31T12:39:49.281Z,25.10
2022-08-31T12:42:15.843Z,24.90
2022-08-31T12:44:50.040Z,25.30
2022-08-31T12:47:40.697Z,25.00
2022-08-31T12:50:39.056Z,25.20
2022-08-31T12:53:40.854Z,26.70
2022-08-31T12:56:15.568Z,27.60
2022-08-31T12:59:03.839Z,27.30
2022-08-31T13:01:30.727Z,26.10
2022-08-31T13:04:01.958Z,25.80
2022-08-31T13:06:34.256Z,25.70
2022-08-31T13:09:01.551Z,25.50
2022-08-31T13:11:51.602Z,26.00
2022-08-31T13:14:24.519Z,26.70
2022-08-31T13:16:55.967Z,27.20
2022-08-31T13:19:29.348Z,28.70
2022-08-31T13:22:01.251Z,30.00
2022-08-31T13:24:42.844Z,30.80
2022-08-31T13:27:22.919Z,31.20
2022-08-31T13:29:50.465Z,31.20
2022-08-31T13:32:30.691Z,31.10
2022-08-31T13:35:05.421Z,30.50
2022-08-31T13:37:37.357Z,30.50
2022-08-31T13:40:07.799Z,29.40
2022-08-31T13:42:43.224Z,29.20
2022-08-31T13:45:30.370Z,28.70
2022-08-31T13:48:00.378Z,29.20
2022-08-31T13:50:45.220Z,30.00
2022-08-31T13:53:41.702Z,29.30
2022-08-31T13:56:48.202Z,29.10
2022-08-31T13:59:24.930Z,28.50
2022-08-31T14:02:00.565Z,27.80
2022-08-31T14:04:48.716Z,26.90
2022-08-31T14:07:21.293Z,26.50
2022-08-31T14:09:51.445Z,26.50
2022-08-31T14:12:35.235Z,27.00
2022-08-31T14:15:23.091Z,27.90
2022-08-31T14:21:19.091Z,29.00
2022-08-31T14:23:51.679Z,29.90
2022-08-31T14:26:22.708Z,29.20
2022-08-31T14:28:53.231Z,28.70
2022-08-31T14:31:30.790Z,28.50
2022-08-31T14:34:26.808Z,28.60
2022-08-31T14:36:55.698Z,27.70
2022-08-31T14:39:26.670Z,26.80
2022-08-31T14:41:59.751Z,26.80
2022-08-31T14:44:30.416Z,26.50
2022-08-31T14:46:57.137Z,26.60
2022-08-31T14:49:24.764Z,26.30
2022-08-31T14:51:51.353Z,26.40
2022-08-31T14:54:17.948Z,26.50
2022-08-31T14:56:48.828Z,26.60
2022-08-31T14:59:19.160Z,26.50
2022-08-31T15:01:48.511Z,26.70
2022-08-31T15:04:18.558Z,26.30
2022-08-31T15:06:56.963Z,26.80
2022-08-31T15:09:23.546Z,26.10
2022-08-31T15:11:51.257Z,26.00
2022-08-31T15:14:18.013Z,26.10
2022-08-31T15:16:48.318Z,26.00
2022-08-31T15:19:15.429Z,25.20
2022-08-31T15:21:52.797Z,25.00
2022-08-31T15:24:29.617Z,25.50
2022-08-31T15:26:57.747Z,25.50
2022-08-31T15:29:30.512Z,25.20
2022-08-31T15:31:58.955Z,24.90
2022-08-31T15:34:29.468Z,25.00
2022-08-31T15:37:02.103Z,25.60
2022-08-31T15:39:32.404Z,25.50
2022-08-31T15:42:00.723Z,25.20
2022-08-31T15:44:27.275Z,24.90
2022-08-31T15:47:15.828Z,24.70
2022-08-31T15:49:43.776Z,24.80
2022-08-31T15:52:10.760Z,24.80
2022-08-31T15:54:40.923Z,25.10
2022-08-31T15:57:07.973Z,24.80
2022-08-31T15:59:35.865Z,24.70
2022-08-31T16:02:04.002Z,24.50
2022-08-31T16:04:33.231Z,24.70
2022-08-31T16:07:00.888Z,24.50
2022-08-31T16:09:27.655Z,24.60
2022-08-31T16:11:54.240Z,24.50
2022-08-31T16:14:21.317Z,24.40
2022-08-31T16:16:49.486Z,24.30
2022-08-31T16:19:33.663Z,24.20
2022-08-31T16:22:05.888Z,24.20
2022-08-31T16:24:35.817Z,24.30
2022-08-31T16:27:07.942Z,24.80
2022-08-31T16:29:35.863Z,24.70
2022-08-31T16:32:02.914Z,24.60
2022-08-31T16:34:31.359Z,24.80
2022-08-31T16:36:58.063Z,24.90
2022-08-31T16:39:28.017Z,24.90
2022-08-31T16:41:54.944Z,25.00
2022-08-31T16:44:21.473Z,24.90
2022-08-31T16:46:48.252Z,24.80
2022-08-31T16:49:33.560Z,25.20
2022-08-31T16:52:03.276Z,24.90
2022-08-31T16:54:30.171Z,24.90
2022-08-31T16:56:57.815Z,24.80
2022-08-31T16:59:26.366Z,25.30
2022-08-31T17:01:53.392Z,25.40
2022-08-31T17:04:41.016Z,25.30
2022-08-31T17:07:10.565Z,25.30
2022-08-31T17:09:38.114Z,25.20
2022-08-31T17:12:12.092Z,24.80
2022-08-31T17:14:46.564Z,24.90
2022-08-31T17:17:15.755Z,24.80
2022-08-31T17:19:44.126Z,25.00
2022-08-31T17:22:21.457Z,24.50
2022-08-31T17:24:49.662Z,24.60
2022-08-31T17:27:18.847Z,24.70
2022-08-31T17:29:54.343Z,24.40
2022-08-31T17:32:24.113Z,24.20
2022-08-31T17:34:52.129Z,23.70
2022-08-31T17:37:25.893Z,23.60
2022-08-31T17:39:53.121Z,23.90
2022-08-31T17:42:21.109Z,23.80
2022-08-31T17:44:54.857Z,23.70
2022-08-31T17:47:24.296Z,23.30
2022-08-31T17:49:51.524Z,23.30
2022-08-31T17:52:20.617Z,23.30
2022-08-31T17:54:48.398Z,23.00
2022-08-31T17:57:16.587Z,22.80
2022-08-31T17:59:46.465Z,22.80
2022-08-31T18:02:21.250Z,22.80
2022-08-31T18:04:48.842Z,23.10
2022-08-31T18:07:16.198Z,23.10
2022-08-31T18:09:45.376Z,23.10
2022-08-31T18:12:12.804Z,22.70
2022-08-31T18:14:39.787Z,22.40
2022-08-31T18:17:12.561Z,23.00
2022-08-31T18:19:39.442Z,23.00
2022-08-31T18:22:06.843Z,22.50
2022-08-31T18:24:35.706Z,22.10
2022-08-31T18:27:04.063Z,21.90
2022-08-31T18:29:34.019Z,22.10
2022-08-31T18:32:05.040Z,22.30
2022-08-31T18:34:33.723Z,21.90
2022-08-31T18:37:00.770Z,21.60
2022-08-31T18:39:50.664Z,21.60
2022-08-31T18:42:34.707Z,21.40
2022-08-31T18:45:18.262Z,21.30
2022-08-31T18:48:07.212Z,21.70
2022-08-31T18:50:36.953Z,21.70
2022-08-31T18:53:08.216Z,21.70
2022-08-31T18:55:38.136Z,21.40
2022-08-31T18:58:04.756Z,21.40
2022-08-31T19:00:34.152Z,21.20
2022-08-31T19:03:02.227Z,21.50
2022-08-31T19:05:29.386Z,21.50
2022-08-31T19:07:58.097Z,21.80
2022-08-31T19:10:25.350Z,21.90
2022-08-31T19:12:52.445Z,21.80
2022-08-31T19:15:19.448Z,21.50
2022-08-31T19:17:49.211Z,21.80
2022-08-31T19:20:16.911Z,21.30
2022-08-31T19:22:43.428Z,21.00
2022-08-31T19:25:12.053Z,21.20
2022-08-31T19:27:39.180Z,20.90
2022-08-31T19:30:08.204Z,20.80
2022-08-31T19:32:36.724Z,20.90
2022-08-31T19:35:04.092Z,20.50
2022-08-31T19:37:30.774Z,20.90
2022-08-31T19:39:57.331Z,21.10
2022-08-31T19:42:40.219Z,21.10
2022-08-31T19:45:24.842Z,21.00
2022-08-31T19:47:51.987Z,20.80
2022-08-31T19:50:18.548Z,20.90
2022-08-31T19:52:45.718Z,20.90
2022-08-31T19:55:12.363Z,20.60
2022-08-31T19:57:39.819Z,20.70
2022-08-31T20:00:09.563Z,20.90
2022-08-31T20:02:36.914Z,20.70
2022-08-31T20:05:06.475Z,20.70
2022-08-31T20:07:34.294Z,21.10
2022-08-31T20:10:02.570Z,20.60
2022-08-31T20:12:29.716Z,20.40
2022-08-31T20:14:56.282Z,20.30
2022-08-31T20:17:23.837Z,20.50
2022-08-31T20:19:50.931Z,20.50
2022-08-31T20:22:17.950Z,20.00
2022-08-31T20:24:46.993Z,20.00
2022-08-31T20:27:19.582Z,20.40
2022-08-31T20:29:46.851Z,20.50
2022-08-31T20:32:13.407Z,20.50
2022-08-31T20:34:40.012Z,20.40
2022-08-31T20:37:10.635Z,20.20
2022-08-31T20:39:39.250Z,20.10
2022-08-31T20:42:07.018Z,19.70
2022-08-31T20:44:35.703Z,19.80
2022-08-31T20:47:24.296Z,19.90
2022-08-31T20:49:53.731Z,19.80
2022-08-31T20:52:21.473Z,19.30
2022-08-31T20:54:51.165Z,19.30
2022-08-31T20:57:21.486Z,19.30
2022-08-31T20:59:51.265Z,19.20
2022-08-31T21:02:19.679Z,19.40
2022-08-31T21:04:47.103Z,19.40
2022-08-31T21:07:15.866Z,19.10
2022-08-31T21:09:44.390Z,19.50
2022-08-31T21:12:12.394Z,19.50
2022-08-31T21:14:45.753Z,19.30
2022-08-31T21:17:14.178Z,19.40
2022-08-31T21:19:41.839Z,19.50
2022-08-31T21:22:11.904Z,19.00
2022-08-31T21:24:41.802Z,19.20
2022-08-31T21:27:13.620Z,19.30
2022-08-31T21:29:40.676Z,19.00
2022-08-31T21:32:09.045Z,18.80
2022-08-31T21:34:36.251Z,19.20
2022-08-31T21:37:02.862Z,19.20
2022-08-31T21:39:29.476Z,19.20
2022-08-31T21:41:56.398Z,19.20
2022-08-31T21:44:24.331Z,19.10
2022-08-31T21:46:51.315Z,19.20
2022-08-31T21:49:19.023Z,19.00
2022-08-31T21:51:51.518Z,19.10
2022-08-31T21:54:20.708Z,19.30
2022-08-31T21:56:50.321Z,19.40
2022-08-31T21:59:19.236Z,19.30
2022-08-31T22:01:46.608Z,19.50
2022-08-31T22:04:14.090Z,19.50
2022-08-31T22:06:43.017Z,19.80
2022-08-31T22:09:11.841Z,19.60
2022-08-31T22:11:41.551Z,19.50
2022-08-31T22:14:11.031Z,19.50
2022-08-31T22:16:39.198Z,19.30
2022-08-31T22:19:12.675Z,19.30
2022-08-31T22:21:44.096Z,19.50
2022-08-31T22:24:13.093Z,19.50
2022-08-31T22:26:53.957Z,19.20
2022-08-31T22:29:23.862Z,19.60
2022-08-31T22:31:56.294Z,19.40
2022-08-31T22:34:29.965Z,19.60
2022-08-31T22:36:57.066Z,20.00
2022-08-31T22:39:28.947Z,19.60
2022-08-31T22:41:56.661Z,19.00
2022-08-31T22:44:26.258Z,19.20
2022-08-31T22:46:53.610Z,19.40
2022-08-31T22:49:20.301Z,19.30
2022-08-31T22:51:48.191Z,19.40
2022-08-31T22:54:17.065Z,19.60
2022-08-31T22:56:44.052Z,19.40
2022-08-31T22:59:14.213Z,19.50
2022-08-31T23:01:50.516Z,19.10
2022-08-31T23:04:19.941Z,19.70
2022-08-31T23:06:48.857Z,19.40
2022-08-31T23:09:19.452Z,19.20
2022-08-31T23:11:46.013Z,19.40
2022-08-31T23:14:12.599Z,19.60
2022-08-31T23:16:48.479Z,19.60
2022-08-31T23:19:18.475Z,19.80
2022-08-31T23:21:53.061Z,19.40
2022-08-31T23:24:28.620Z,19.20
2022-08-31T23:27:03.017Z,19.20
2022-08-31T23:29:32.077Z,19.30
2022-08-31T23:32:00.839Z,19.40
2022-08-31T23:34:27.363Z,19.50
2022-08-31T23:36:55.491Z,19.70
2022-08-31T23:39:23.597Z,19.50
2022-08-31T23:41:50.309Z,19.50
2022-08-31T23:44:20.413Z,19.60
2022-08-31T23:46:47.952Z,19.50
2022-08-31T23:49:18.086Z,19.20
2022-08-31T23:51:44.666Z,19.10
2022-08-31T23:54:12.444Z,18.90
2022-08-31T23:56:41.742Z,19.20
2022-08-31T23:59:11.188Z,19.20
